Severna Park, Maryland
Current Conditions -  °F | °C
As of 4:54 AM on Tuesday 21 Oct 2014 (Local Time) from KNAK Reporting Station
Broken Clouds Broken Clouds  
Wind Chill: 57°   Ceiling: 11000
Heat Index: 57°   Visibility: 10mi
Dew Point: 48°   Wind: 0mph
Humidity: 72%   Direction: NA
Pressure: 29.86"   Gusts: NA
Location:  39.07°N, 76.54°W
Report Text: KNAK 210854Z AUTO 00000KT 10SM BKN110 14/09 A2986 RMK AO2 SLP113 60000 T01390089 56016
Loading
Personal Weather Stations






























Interactive Weather Map
Tropical Storm Tracking
New forecast layout! Learn more

10-Day Weather Forecast

Advertisements
Track Severe Weather on mobile